Hlavní strana
METAR-TAF:

METAR-TAF

Letiště :

Yap, Mikronésie

zeměpisná šířka: 09-29N, zeměpisná délka: 138-05E, výška: 28 m

Aktuální stav počasí

Zpráva byla vytvořena před 37 minutami, v 15:58 UTC
vítr z různých směrů 5 kt
Teplota 27°C
Vlhkost vzduchu 84%
Tlak 1008 hPa
Viditelnost: 19.3 km
Skoro jasno ve výšce 1600 ft
Polojasno ve výšce 30000 ft

METAR: PTYA 251558Z VRB05KT 12SM FEW016 SCT300 27/24 A2977 RMK SLP081 T02720242

Čas: 02:35 (16:35 UTC)

Předpověď počasí

Zpráva byla vytvořena před 4 hodinami a 59 minutami, v 11:36 UTC
Předpověď platná od 25 v 12 UTC do 26 v 12 UTC
vítr z různých směrů 4 kt
Viditelnost: 10 km
Polojasno ve výšce 1600 ft

TAF: PTYA 251136Z 2512/2612 VRB04KT P6SM SCT016

Stav a předpovědi počasí z více než 4 000 letišť (zprávy METAR a TAF).

Červené a žluté tečky na mapě představují dostupné meteorologické stanice.

Když kurzor umístíte na tečku, zobrazí se název stanice.

Pak kliknutím zobrazíte stav a předpověď počasí.

Chcete-li změnit mapu, kliknutím na zelené tlačítko se znaménkem +mapu přiblížíte, kliknutím na zelené tlačítko se znaménkem – mapu oddálíte a kliknutím na zelené šipky přejdete na sousední mapy.


METAR-TAF: